Time;durP1;ratioP1;P1;durP2;ratioP2;P2;SDS_P1;SDS_P2;PMS_P1;PMS_P2;Temp;Humidity;BMP_temperature;BMP_pressure;BME280_temperature;BME280_humidity;BME280_pressure;Samples;Min_cycle;Max_cycle;Signal;HPM_P1;HPM_P2
2021/12/29 00:01:40;;;;;;;30.98;8.23;;;7.10;99.90;;;;;;5033533;28;20049;-66
2021/12/29 00:04:06;;;;;;;36.22;8.52;;;7.10;99.90;;;;;;5030040;28;20037;-68
2021/12/29 00:06:32;;;;;;;37.42;8.65;;;7.10;99.90;;;;;;5033362;28;20069;-67
2021/12/29 00:08:59;;;;;;;41.25;8.70;;;7.10;99.90;;;;;;5033499;28;20048;-67
2021/12/29 00:11:26;;;;;;;31.52;8.80;;;7.10;99.90;;;;;;5015866;28;20057;-66
2021/12/29 00:13:51;;;;;;;36.67;9.18;;;7.20;99.90;;;;;;5031744;28;20047;-66
2021/12/29 00:16:17;;;;;;;41.60;14.35;;;7.20;99.90;;;;;;5032839;28;20124;-67
2021/12/29 00:18:44;;;;;;;37.47;9.98;;;7.10;99.90;;;;;;5036787;28;20042;-66
2021/12/29 00:21:10;;;;;;;35.42;9.90;;;7.10;99.90;;;;;;5037546;28;20042;-66
2021/12/29 00:23:37;;;;;;;32.95;9.50;;;7.20;99.90;;;;;;5036562;28;20041;-66
2021/12/29 00:26:03;;;;;;;28.35;8.80;;;7.20;99.90;;;;;;5037398;28;20037;-67
2021/12/29 00:28:29;;;;;;;35.03;9.32;;;7.20;99.90;;;;;;5037481;28;20037;-67
2021/12/29 00:30:55;;;;;;;32.28;8.63;;;7.20;99.90;;;;;;5037442;28;20115;-66
2021/12/29 00:33:20;;;;;;;29.95;8.77;;;7.20;99.90;;;;;;5025938;28;20038;-66
2021/12/29 00:35:47;;;;;;;34.65;9.40;;;7.20;99.90;;;;;;5016977;28;20482;-67
2021/12/29 00:38:13;;;;;;;35.88;9.45;;;7.20;99.90;;;;;;5017384;28;20038;-66
2021/12/29 00:40:39;;;;;;;42.22;8.82;;;7.20;99.90;;;;;;5017287;28;20060;-67
2021/12/29 00:43:07;;;;;;;43.80;10.10;;;7.20;99.90;;;;;;5008309;28;20042;-66
2021/12/29 00:45:36;;;;;;;59.95;10.63;;;7.20;99.90;;;;;;5036897;28;20112;-66
2021/12/29 00:48:08;;;;;;;51.00;11.15;;;7.20;99.90;;;;;;5036894;28;20077;-66
2021/12/29 00:50:34;;;;;;;41.85;9.52;;;7.20;99.90;;;;;;5036823;28;20072;-66
2021/12/29 00:53:00;;;;;;;48.97;10.02;;;7.20;99.90;;;;;;5028070;28;20417;-66
2021/12/29 00:55:26;;;;;;;40.58;9.95;;;7.30;99.90;;;;;;5016664;28;20352;-66
2021/12/29 00:57:52;;;;;;;33.50;8.40;;;7.30;99.90;;;;;;5017202;28;20117;-66
2021/12/29 01:00:21;;;;;;;38.55;9.40;;;7.20;99.90;;;;;;5017040;28;20447;-67
2021/12/29 01:02:50;;;;;;;40.53;9.02;;;7.20;99.90;;;;;;5022668;28;20142;-65
2021/12/29 01:05:18;;;;;;;36.30;9.48;;;7.30;99.90;;;;;;5036584;28;20075;-66
2021/12/29 01:07:44;;;;;;;35.47;9.35;;;7.20;99.90;;;;;;5036353;28;20049;-66
2021/12/29 01:10:11;;;;;;;34.80;9.07;;;7.30;99.90;;;;;;5036286;28;20049;-67
2021/12/29 01:12:36;;;;;;;29.92;8.73;;;7.30;99.90;;;;;;5030782;28;20407;-67
2021/12/29 01:15:03;;;;;;;40.45;9.48;;;7.30;99.90;;;;;;5016356;28;20132;-66
2021/12/29 01:17:31;;;;;;;37.55;9.07;;;7.30;99.90;;;;;;5016261;28;20038;-67
2021/12/29 01:19:57;;;;;;;42.15;9.18;;;7.30;99.90;;;;;;5016681;28;20060;-66
2021/12/29 01:22:23;;;;;;;35.75;8.43;;;7.30;99.90;;;;;;5019125;28;20438;-67
2021/12/29 01:24:49;;;;;;;37.47;8.35;;;7.30;99.90;;;;;;5036009;28;20385;-67
2021/12/29 01:27:17;;;;;;;30.17;8.85;;;7.30;99.90;;;;;;5035935;28;20049;-66
2021/12/29 01:29:43;;;;;;;27.77;8.82;;;7.30;99.90;;;;;;5018376;28;20045;-66
2021/12/29 01:32:09;;;;;;;26.20;9.93;;;7.40;99.90;;;;;;5034494;28;20343;-67
2021/12/29 01:34:35;;;;;;;28.40;10.15;;;7.40;99.90;;;;;;5036020;28;20039;-66
2021/12/29 01:37:02;;;;;;;29.55;11.07;;;7.50;99.90;;;;;;5035783;28;20053;-67
2021/12/29 01:39:28;;;;;;;27.95;11.50;;;7.60;99.90;;;;;;5035954;28;20099;-66
2021/12/29 01:41:56;;;;;;;30.25;12.30;;;7.60;99.90;;;;;;5018515;28;20046;-67
2021/12/29 01:44:24;;;;;;;27.13;11.88;;;7.70;99.90;;;;;;5016661;28;20101;-67
2021/12/29 01:46:50;;;;;;;32.55;12.73;;;7.70;99.90;;;;;;5015935;28;20048;-67
2021/12/29 01:49:16;;;;;;;28.40;11.90;;;7.80;99.90;;;;;;5016029;28;20354;-67
2021/12/29 01:51:49;;;;;;;24.60;11.23;;;7.80;99.90;;;;;;4998749;28;20060;-67
2021/12/29 01:54:23;;;;;;;25.48;12.60;;;7.80;99.90;;;;;;5033446;28;20045;-66
2021/12/29 01:56:59;;;;;;;27.15;10.63;;;7.80;99.90;;;;;;5035984;28;20049;-67
2021/12/29 01:59:26;;;;;;;25.77;12.00;;;7.80;99.90;;;;;;5035870;28;20033;-66
2021/12/29 02:01:52;;;;;;;28.63;12.80;;;7.90;99.90;;;;;;5035585;28;20148;-67
2021/12/29 02:04:19;;;;;;;28.95;13.18;;;7.90;99.90;;;;;;5016462;28;20100;-68
2021/12/29 02:06:46;;;;;;;23.30;12.27;;;7.80;99.90;;;;;;5015734;28;20065;-67
2021/12/29 02:09:12;;;;;;;30.70;13.77;;;7.90;99.90;;;;;;5015731;28;20042;-67
2021/12/29 02:11:38;;;;;;;23.90;12.65;;;7.80;99.90;;;;;;5015595;28;20050;-67
2021/12/29 02:14:07;;;;;;;28.40;13.15;;;7.80;99.90;;;;;;5031192;28;20125;-67
2021/12/29 02:16:33;;;;;;;19.02;10.40;;;7.80;99.90;;;;;;5034691;28;20466;-67
2021/12/29 02:19:12;;;;;;;24.58;11.63;;;7.90;99.90;;;;;;5035373;28;20075;-67
2021/12/29 02:21:42;;;;;;;20.83;10.48;;;7.90;99.90;;;;;;5035255;28;20461;-67
2021/12/29 02:26:38;;;;;;;19.58;9.50;;;7.80;99.90;;;;;;5035247;28;20041;-67
2021/12/29 02:29:10;;;;;;;23.55;11.07;;;7.90;99.90;;;;;;5035039;28;20086;-67
2021/12/29 02:31:36;;;;;;;19.83;11.02;;;7.80;99.90;;;;;;5034575;28;20041;-67
2021/12/29 02:34:04;;;;;;;28.83;11.05;;;7.80;99.90;;;;;;5018460;28;20136;-67
2021/12/29 02:36:30;;;;;;;19.50;10.88;;;7.80;99.90;;;;;;5014815;28;20048;-67
2021/12/29 02:38:56;;;;;;;21.67;10.20;;;7.80;99.90;;;;;;5015269;28;20121;-67
2021/12/29 02:41:25;;;;;;;24.63;10.68;;;7.80;99.90;;;;;;5014493;28;20109;-67
2021/12/29 02:44:02;;;;;;;21.73;10.68;;;7.80;99.90;;;;;;5028659;28;20458;-67
2021/12/29 02:46:31;;;;;;;19.23;10.15;;;7.80;99.90;;;;;;5034388;28;20146;-67
2021/12/29 02:48:59;;;;;;;22.13;9.65;;;7.80;99.90;;;;;;5034806;28;20046;-67
2021/12/29 02:51:31;;;;;;;24.75;10.43;;;7.70;99.90;;;;;;5034056;28;20052;-68
2021/12/29 02:53:56;;;;;;;23.58;10.93;;;7.80;99.90;;;;;;5033332;28;20041;-67
2021/12/29 02:56:24;;;;;;;25.02;10.85;;;7.70;99.90;;;;;;5034641;28;20063;-68
2021/12/29 02:58:49;;;;;;;28.98;11.90;;;7.70;99.90;;;;;;5034426;28;20415;-67
2021/12/29 03:01:16;;;;;;;20.88;10.60;;;7.80;99.90;;;;;;5034149;28;20041;-67
2021/12/29 03:03:43;;;;;;;23.15;11.10;;;7.70;99.90;;;;;;5020989;28;20041;-67
2021/12/29 03:06:10;;;;;;;26.73;12.57;;;7.80;99.90;;;;;;5014654;28;20041;-68
2021/12/29 03:08:36;;;;;;;25.15;11.95;;;7.80;99.90;;;;;;5014735;28;20037;-68
2021/12/29 03:11:03;;;;;;;25.95;12.05;;;7.80;99.90;;;;;;5014638;28;20050;-67
2021/12/29 03:13:31;;;;;;;24.00;11.82;;;7.70;99.90;;;;;;5024783;28;20079;-67
2021/12/29 03:15:57;;;;;;;22.92;11.15;;;7.80;99.90;;;;;;5033532;28;20431;-67
2021/12/29 03:18:23;;;;;;;24.65;11.02;;;7.80;99.90;;;;;;5016969;28;20056;-67
2021/12/29 03:20:49;;;;;;;23.00;11.45;;;7.80;99.90;;;;;;5033936;28;20076;-67
2021/12/29 03:23:15;;;;;;;18.15;11.10;;;7.70;99.90;;;;;;5032021;28;20049;-67
2021/12/29 03:25:41;;;;;;;22.52;11.07;;;7.70;99.90;;;;;;5034123;28;20045;-67
2021/12/29 03:28:07;;;;;;;18.30;10.88;;;7.70;99.90;;;;;;5033833;28;20077;-67
2021/12/29 03:30:39;;;;;;;22.88;11.68;;;7.70;99.90;;;;;;5034024;28;20041;-67
2021/12/29 03:33:07;;;;;;;19.73;9.77;;;7.70;99.90;;;;;;5025909;28;20402;-67
2021/12/29 03:35:40;;;;;;;20.27;10.30;;;7.70;99.90;;;;;;5013860;28;20038;-67
2021/12/29 03:38:09;;;;;;;18.73;10.50;;;7.70;99.90;;;;;;4996838;28;20458;-67
2021/12/29 03:40:36;;;;;;;18.67;10.60;;;7.70;99.90;;;;;;5014138;28;20056;-67
2021/12/29 03:43:04;;;;;;;21.90;10.52;;;7.70;99.90;;;;;;5020569;28;20033;-67
2021/12/29 03:45:30;;;;;;;20.45;10.70;;;7.70;99.90;;;;;;5033390;28;20056;-67
2021/12/29 03:47:55;;;;;;;21.92;10.75;;;7.80;99.90;;;;;;5033507;28;20041;-67
2021/12/29 03:50:21;;;;;;;21.10;10.55;;;7.70;99.90;;;;;;5033974;28;20033;-67
2021/12/29 03:52:47;;;;;;;19.23;11.65;;;7.80;99.90;;;;;;5028101;28;20454;-67
2021/12/29 03:55:13;;;;;;;25.38;12.35;;;7.80;99.90;;;;;;5014005;28;20120;-67
2021/12/29 03:57:39;;;;;;;28.65;14.13;;;7.70;99.90;;;;;;5013518;28;20459;-67
2021/12/29 04:00:08;;;;;;;25.00;12.63;;;7.80;99.90;;;;;;5013983;28;20052;-66
2021/12/29 04:02:34;;;;;;;23.23;12.52;;;7.80;99.90;;;;;;5016090;28;20496;-67
2021/12/29 04:05:01;;;;;;;28.30;13.43;;;7.80;99.90;;;;;;5033753;28;20029;-67
2021/12/29 04:07:27;;;;;;;28.95;13.35;;;7.80;99.90;;;;;;5026634;28;20450;-67
2021/12/29 04:09:53;;;;;;;25.35;12.57;;;7.80;99.90;;;;;;5053635;28;20037;-67
2021/12/29 04:12:19;;;;;;;29.95;13.38;;;7.80;99.90;;;;;;5032654;28;20083;-67
2021/12/29 04:14:45;;;;;;;24.20;12.85;;;7.80;99.90;;;;;;5033241;28;20049;-67
2021/12/29 04:17:12;;;;;;;28.13;13.45;;;7.80;99.90;;;;;;5016027;28;20343;-67
2021/12/29 04:22:23;;;;;;;29.70;13.20;;;7.80;99.90;;;;;;5030955;28;20042;-67
2021/12/29 04:24:49;;;;;;;28.13;12.85;;;7.70;99.90;;;;;;5033529;28;20092;-67
2021/12/29 04:27:15;;;;;;;32.63;12.98;;;7.70;99.90;;;;;;5016103;28;20741;-67
2021/12/29 04:29:41;;;;;;;33.72;12.88;;;7.70;99.90;;;;;;5015762;28;20096;-67
2021/12/29 04:32:07;;;;;;;27.17;11.43;;;7.70;99.90;;;;;;5032973;28;20041;-67
2021/12/29 04:34:33;;;;;;;31.50;11.85;;;7.80;99.90;;;;;;5013593;28;20077;-67
2021/12/29 04:36:58;;;;;;;33.63;12.80;;;7.80;99.90;;;;;;5013366;28;20054;-66
2021/12/29 04:39:24;;;;;;;40.40;13.65;;;7.80;99.90;;;;;;5013659;28;20038;-67
2021/12/29 04:41:50;;;;;;;34.97;13.40;;;7.80;99.90;;;;;;5013210;28;20033;-67
2021/12/29 04:44:15;;;;;;;29.73;12.88;;;7.80;99.90;;;;;;5029928;28;20455;-67
2021/12/29 04:46:45;;;;;;;32.97;12.20;;;7.70;99.90;;;;;;5033013;28;20396;-67
2021/12/29 04:49:13;;;;;;;31.90;11.93;;;7.70;99.90;;;;;;5033136;28;20072;-67
2021/12/29 04:51:47;;;;;;;29.83;11.52;;;7.70;99.90;;;;;;5033118;28;20037;-67
2021/12/29 04:54:14;;;;;;;28.92;11.82;;;7.80;99.90;;;;;;5016728;28;20052;-67
2021/12/29 04:56:40;;;;;;;30.20;11.45;;;7.70;99.90;;;;;;5013351;28;20078;-67
2021/12/29 04:59:05;;;;;;;31.70;11.82;;;7.70;99.90;;;;;;5013182;28;20470;-66
2021/12/29 05:01:32;;;;;;;33.80;11.55;;;7.70;99.90;;;;;;5013100;28;20120;-67
2021/12/29 05:03:57;;;;;;;27.10;10.38;;;7.70;99.90;;;;;;5028219;28;20037;-67
2021/12/29 05:09:07;;;;;;;23.00;9.32;;;7.70;99.90;;;;;;5036657;28;20107;-67
2021/12/29 05:11:33;;;;;;;29.13;10.40;;;7.70;99.90;;;;;;5036178;28;20037;-66
2021/12/29 05:13:58;;;;;;;29.40;10.98;;;7.80;99.90;;;;;;5035372;28;20099;-66
2021/12/29 05:16:28;;;;;;;27.63;10.02;;;7.80;99.90;;;;;;5035932;28;20354;-67
2021/12/29 05:18:56;;;;;;;28.90;10.25;;;7.70;99.90;;;;;;5036551;28;20045;-67
2021/12/29 05:21:22;;;;;;;33.13;10.43;;;7.70;99.90;;;;;;5036543;28;20029;-67
2021/12/29 05:23:48;;;;;;;31.60;10.93;;;7.70;99.90;;;;;;5033272;28;20038;-67
2021/12/29 05:26:14;;;;;;;27.13;10.65;;;7.70;99.90;;;;;;5018623;28;20052;-66
2021/12/29 05:28:39;;;;;;;35.85;10.82;;;7.70;99.90;;;;;;5036195;28;20056;-67
2021/12/29 05:31:05;;;;;;;28.88;10.25;;;7.70;99.90;;;;;;5036198;28;20041;-67
2021/12/29 05:33:31;;;;;;;28.48;11.30;;;7.70;99.90;;;;;;5025321;28;20052;-67
2021/12/29 05:35:56;;;;;;;34.60;10.88;;;7.80;99.90;;;;;;5021063;28;20040;-67
2021/12/29 05:38:23;;;;;;;35.13;10.95;;;7.70;99.90;;;;;;5035977;28;20091;-66
2021/12/29 05:40:49;;;;;;;28.48;11.23;;;7.80;99.90;;;;;;5035187;28;20362;-67
2021/12/29 05:43:14;;;;;;;28.48;10.55;;;7.80;99.90;;;;;;5034291;28;20120;-67
2021/12/29 05:45:40;;;;;;;33.65;11.50;;;7.80;99.90;;;;;;5034939;28;20122;-68
2021/12/29 05:48:06;;;;;;;28.30;10.95;;;7.80;99.90;;;;;;5035632;28;20041;-68
2021/12/29 05:50:32;;;;;;;30.92;10.25;;;7.80;99.90;;;;;;5035181;28;20341;-66
2021/12/29 05:52:59;;;;;;;31.17;11.18;;;7.80;99.90;;;;;;5036172;28;20045;-67
2021/12/29 05:55:26;;;;;;;36.45;11.27;;;7.80;99.90;;;;;;5035602;28;20029;-67
2021/12/29 05:57:53;;;;;;;29.35;11.15;;;7.80;99.90;;;;;;5035486;28;20048;-66
2021/12/29 06:00:22;;;;;;;31.27;11.02;;;7.80;99.90;;;;;;5030330;28;20042;-66
2021/12/29 06:02:48;;;;;;;34.15;11.02;;;7.80;99.90;;;;;;5016641;28;20086;-67
2021/12/29 06:05:15;;;;;;;28.00;11.50;;;7.70;99.90;;;;;;5016798;28;20034;-67
2021/12/29 06:07:40;;;;;;;31.90;10.63;;;7.80;99.90;;;;;;5016195;28;20048;-67
2021/12/29 06:10:08;;;;;;;30.33;10.18;;;7.80;99.90;;;;;;4997869;28;20382;-67
2021/12/29 06:12:34;;;;;;;30.55;10.40;;;7.80;99.90;;;;;;5017041;28;20045;-67
2021/12/29 06:15:00;;;;;;;36.80;11.35;;;7.80;99.90;;;;;;5033487;28;20056;-67
2021/12/29 06:17:25;;;;;;;30.15;9.23;;;7.80;99.90;;;;;;5035091;28;20393;-67
2021/12/29 06:19:51;;;;;;;29.27;9.50;;;7.80;99.90;;;;;;5035101;28;20382;-67
2021/12/29 06:22:17;;;;;;;25.85;10.85;;;7.80;99.90;;;;;;5016959;28;20540;-67
2021/12/29 06:24:43;;;;;;;34.35;10.93;;;7.90;99.90;;;;;;5007555;28;20450;-67
2021/12/29 06:27:10;;;;;;;31.02;10.43;;;7.80;99.90;;;;;;5034897;28;20044;-67
2021/12/29 06:29:36;;;;;;;32.17;10.82;;;7.80;99.90;;;;;;5034806;28;20067;-67
2021/12/29 06:32:03;;;;;;;32.05;10.30;;;7.80;99.90;;;;;;5034029;28;20045;-68
2021/12/29 06:34:29;;;;;;;33.47;10.23;;;7.80;99.90;;;;;;5033808;28;20038;-64
2021/12/29 06:36:56;;;;;;;27.95;11.15;;;7.90;99.90;;;;;;5001677;28;20060;-66
2021/12/29 06:39:22;;;;;;;28.58;10.05;;;7.90;99.90;;;;;;5014924;28;20034;-68
2021/12/29 06:41:47;;;;;;;33.17;9.75;;;7.90;99.90;;;;;;5014776;28;20092;-68
2021/12/29 06:44:13;;;;;;;27.23;10.02;;;7.90;99.90;;;;;;5015580;28;20107;-67
2021/12/29 06:46:39;;;;;;;35.38;10.57;;;7.90;99.90;;;;;;5017873;28;20500;-67
2021/12/29 06:49:04;;;;;;;29.15;9.90;;;7.90;99.90;;;;;;5002376;28;20084;-67
2021/12/29 06:51:30;;;;;;;32.92;11.00;;;7.90;99.90;;;;;;5014045;28;20034;-67
2021/12/29 06:53:55;;;;;;;29.75;9.85;;;7.90;99.90;;;;;;5014850;28;20033;-68
2021/12/29 06:56:21;;;;;;;32.70;9.98;;;7.90;99.90;;;;;;5027675;28;20045;-67
2021/12/29 06:58:47;;;;;;;28.05;9.52;;;7.90;99.90;;;;;;5016605;28;20061;-68
2021/12/29 07:01:13;;;;;;;23.35;8.68;;;7.90;99.90;;;;;;5034037;28;20041;-68
2021/12/29 07:03:39;;;;;;;31.42;9.60;;;7.90;99.90;;;;;;5032365;28;20497;-67
2021/12/29 07:06:05;;;;;;;28.20;9.02;;;7.90;99.90;;;;;;5013053;28;20378;-67
2021/12/29 07:08:31;;;;;;;22.48;7.85;;;7.90;99.90;;;;;;5013529;28;20100;-67
2021/12/29 07:10:57;;;;;;;21.77;8.45;;;7.90;99.90;;;;;;5013366;28;20121;-66
2021/12/29 07:13:22;;;;;;;19.13;7.95;;;7.90;99.90;;;;;;5016092;28;20407;-66
2021/12/29 07:15:48;;;;;;;18.73;7.72;;;7.90;99.90;;;;;;5012604;28;20406;-67
2021/12/29 07:18:14;;;;;;;21.73;8.27;;;7.90;99.90;;;;;;5031567;28;20049;-64
2021/12/29 07:20:42;;;;;;;24.92;7.88;;;7.90;99.90;;;;;;5034230;28;20076;-67
2021/12/29 07:23:08;;;;;;;22.85;8.38;;;8.00;99.90;;;;;;5027560;28;20037;-67
2021/12/29 07:25:34;;;;;;;17.80;7.10;;;8.00;99.90;;;;;;5014064;28;20045;-67
2021/12/29 07:28:00;;;;;;;25.13;8.82;;;7.90;99.90;;;;;;5014243;28;20042;-67
2021/12/29 07:30:25;;;;;;;28.92;8.93;;;8.00;99.90;;;;;;5014063;28;20120;-67
2021/12/29 07:32:51;;;;;;;29.65;9.10;;;8.00;99.90;;;;;;5017174;28;20047;-68
2021/12/29 07:35:17;;;;;;;31.35;9.10;;;8.00;99.90;;;;;;5034103;28;20362;-67
2021/12/29 07:37:43;;;;;;;23.35;8.00;;;8.00;99.90;;;;;;5016236;28;20458;-67
2021/12/29 07:40:09;;;;;;;26.83;8.20;;;8.00;99.90;;;;;;5034091;28;20048;-68
2021/12/29 07:42:36;;;;;;;20.48;8.13;;;8.00;99.90;;;;;;5029336;28;20076;-67
2021/12/29 07:45:06;;;;;;;21.50;8.55;;;8.00;99.90;;;;;;5014255;28;20038;-68
2021/12/29 07:47:32;;;;;;;23.95;8.38;;;8.10;99.90;;;;;;5013754;28;20485;-68
2021/12/29 07:49:57;;;;;;;25.25;8.25;;;8.10;99.90;;;;;;5014324;28;20034;-67
2021/12/29 07:52:23;;;;;;;21.50;7.55;;;8.10;99.90;;;;;;5013916;28;20403;-68
2021/12/29 07:54:49;;;;;;;21.38;7.88;;;8.10;99.90;;;;;;5033337;28;20052;-67
2021/12/29 07:57:14;;;;;;;28.00;8.10;;;8.10;99.90;;;;;;5033747;28;20060;-67
2021/12/29 07:59:40;;;;;;;19.55;7.40;;;8.10;99.90;;;;;;5033654;28;20144;-68
2021/12/29 08:02:10;;;;;;;27.38;7.82;;;8.10;99.90;;;;;;5015674;28;20358;-68
2021/12/29 08:04:35;;;;;;;21.75;7.95;;;8.10;99.90;;;;;;5015797;28;20120;-68
2021/12/29 08:07:01;;;;;;;27.15;8.55;;;8.10;99.90;;;;;;5019321;28;20188;-68
2021/12/29 08:09:27;;;;;;;31.58;9.55;;;8.10;99.90;;;;;;5032291;28;20343;-68
2021/12/29 08:11:52;;;;;;;33.92;9.68;;;8.10;99.90;;;;;;5033134;28;20049;-68
2021/12/29 08:14:18;;;;;;;45.17;10.65;;;8.10;99.90;;;;;;5032636;28;20037;-67
2021/12/29 08:16:44;;;;;;;49.30;12.35;;;8.10;99.90;;;;;;5033346;28;20064;-68
2021/12/29 08:19:10;;;;;;;34.95;11.20;;;8.00;99.90;;;;;;5015874;28;20049;-68
2021/12/29 08:21:36;;;;;;;31.15;10.15;;;8.00;99.90;;;;;;5029366;28;20038;-67
2021/12/29 08:24:01;;;;;;;34.75;11.38;;;8.10;99.90;;;;;;5026075;28;20033;-68
2021/12/29 08:26:27;;;;;;;46.88;12.25;;;8.10;99.90;;;;;;5012175;28;20160;-66
2021/12/29 08:28:57;;;;;;;27.45;11.15;;;8.10;99.90;;;;;;5012295;28;20038;-68
2021/12/29 08:31:24;;;;;;;26.55;10.65;;;8.10;99.90;;;;;;5011860;28;20061;-67
2021/12/29 08:33:50;;;;;;;25.65;9.80;;;8.20;99.90;;;;;;5012808;28;20116;-67
2021/12/29 08:36:15;;;;;;;19.88;8.63;;;8.20;99.90;;;;;;5012055;28;20129;-68
2021/12/29 08:38:42;;;;;;;24.15;9.32;;;8.20;99.90;;;;;;5013456;28;20077;-68
2021/12/29 08:41:11;;;;;;;20.20;9.00;;;8.20;99.90;;;;;;5025792;28;20052;-68
2021/12/29 08:43:37;;;;;;;22.75;9.50;;;8.20;99.90;;;;;;5035589;28;20052;-69
2021/12/29 08:46:03;;;;;;;18.20;8.13;;;8.20;99.90;;;;;;5036943;28;20029;-68
2021/12/29 08:48:29;;;;;;;18.58;7.70;;;8.20;99.90;;;;;;5037013;28;20480;-68
2021/12/29 08:50:58;;;;;;;22.15;8.73;;;8.20;99.90;;;;;;5037058;28;20064;-68
2021/12/29 08:53:24;;;;;;;22.02;9.20;;;8.30;99.90;;;;;;5028728;28;20072;-69
2021/12/29 08:55:51;;;;;;;24.67;11.18;;;8.30;99.90;;;;;;5017216;28;20115;-68
2021/12/29 08:58:17;;;;;;;25.25;8.68;;;8.30;99.90;;;;;;5017135;28;20038;-68
2021/12/29 09:00:44;;;;;;;21.83;7.75;;;8.20;99.90;;;;;;5016982;28;20050;-69
2021/12/29 09:03:10;;;;;;;18.40;7.80;;;8.30;99.90;;;;;;5030869;28;20052;-68
2021/12/29 09:05:37;;;;;;;17.35;7.35;;;8.30;99.90;;;;;;5033969;28;20509;-68
2021/12/29 09:08:03;;;;;;;17.70;7.93;;;8.20;99.90;;;;;;5036068;28;20095;-69
2021/12/29 09:10:29;;;;;;;17.48;7.88;;;8.30;99.90;;;;;;5036455;28;20107;-71
2021/12/29 09:12:55;;;;;;;16.70;7.05;;;8.30;99.90;;;;;;5035322;28;20041;-69
2021/12/29 09:15:21;;;;;;;15.80;7.70;;;8.30;99.90;;;;;;5018565;28;20466;-70
2021/12/29 09:17:47;;;;;;;22.85;8.60;;;8.30;99.90;;;;;;5002134;28;20061;-69
2021/12/29 09:20:25;;;;;;;19.77;8.25;;;8.40;99.90;;;;;;5017243;28;20034;-68
2021/12/29 09:22:51;;;;;;;22.55;8.80;;;8.40;99.90;;;;;;5015410;28;20041;-68
2021/12/29 09:25:19;;;;;;;16.27;8.10;;;8.40;99.90;;;;;;5016589;28;20089;-68
2021/12/29 09:27:47;;;;;;;18.73;8.65;;;8.30;99.90;;;;;;4998945;28;20041;-67
2021/12/29 09:30:13;;;;;;;27.05;8.90;;;8.30;99.90;;;;;;4998791;28;20124;-68
2021/12/29 09:32:39;;;;;;;16.15;7.50;;;8.30;99.90;;;;;;4999259;28;20433;-68
2021/12/29 09:35:05;;;;;;;21.25;7.13;;;8.40;99.90;;;;;;5036155;28;20103;-68
2021/12/29 09:37:31;;;;;;;18.98;6.97;;;8.40;99.90;;;;;;5018579;28;20366;-68
2021/12/29 09:39:57;;;;;;;16.08;6.72;;;8.40;99.90;;;;;;5018252;28;20037;-68
2021/12/29 09:42:23;;;;;;;18.25;6.68;;;8.40;99.90;;;;;;5018080;28;20045;-69
2021/12/29 09:44:51;;;;;;;16.48;6.07;;;8.40;99.90;;;;;;4999683;28;20042;-68
2021/12/29 09:47:18;;;;;;;17.60;5.78;;;8.40;99.90;;;;;;5032027;28;20037;-68
2021/12/29 09:49:44;;;;;;;15.57;6.18;;;8.40;99.90;;;;;;5035328;28;20037;-68
2021/12/29 09:52:10;;;;;;;23.65;5.88;;;8.40;99.90;;;;;;5035317;28;20048;-68
2021/12/29 09:54:35;;;;;;;20.20;5.32;;;8.40;99.90;;;;;;5035085;28;20037;-67
2021/12/29 09:57:03;;;;;;;20.80;6.03;;;8.40;99.90;;;;;;5035783;28;20049;-68
2021/12/29 09:59:29;;;;;;;18.33;5.07;;;8.40;99.90;;;;;;5001737;28;20041;-68
2021/12/29 10:01:56;;;;;;;24.67;5.25;;;8.40;99.90;;;;;;5017376;28;20033;-67
2021/12/29 10:04:21;;;;;;;18.98;4.60;;;8.40;99.90;;;;;;5003395;28;20115;-68
2021/12/29 10:06:47;;;;;;;16.98;4.47;;;8.40;99.90;;;;;;5017661;28;20450;-68
2021/12/29 10:09:16;;;;;;;18.52;4.45;;;8.40;99.90;;;;;;5035661;28;20064;-68
2021/12/29 10:11:43;;;;;;;22.38;4.78;;;8.40;99.90;;;;;;5034858;28;20091;-67
2021/12/29 10:14:11;;;;;;;18.80;4.25;;;8.40;99.90;;;;;;5017012;28;20137;-68
2021/12/29 10:16:38;;;;;;;19.13;4.68;;;8.40;99.90;;;;;;5017187;28;20092;-68
2021/12/29 10:19:07;;;;;;;26.02;4.65;;;8.40;99.90;;;;;;5017680;28;20088;-68
2021/12/29 10:21:36;;;;;;;18.98;4.60;;;8.40;99.90;;;;;;5017500;28;20033;-68
2021/12/29 10:24:03;;;;;;;21.45;5.28;;;8.50;99.90;;;;;;5012372;28;20038;-68
2021/12/29 10:26:31;;;;;;;20.45;5.15;;;8.50;99.90;;;;;;5001472;28;20034;-68
2021/12/29 10:29:09;;;;;;;21.23;5.90;;;8.50;99.90;;;;;;5001100;28;20045;-68
2021/12/29 10:31:42;;;;;;;19.52;5.57;;;8.50;99.90;;;;;;5017313;28;20041;-68
2021/12/29 10:34:12;;;;;;;17.27;5.40;;;8.50;99.90;;;;;;5004303;28;20060;-68
2021/12/29 10:36:48;;;;;;;21.48;5.10;;;8.60;99.90;;;;;;4997701;28;20038;-68
2021/12/29 10:39:23;;;;;;;24.70;5.75;;;8.60;99.90;;;;;;4997777;28;20053;-69
2021/12/29 10:42:09;;;;;;;17.02;4.70;;;8.70;99.90;;;;;;4997465;28;20104;-67
2021/12/29 10:44:45;;;;;;;20.02;4.60;;;8.80;99.90;;;;;;5013861;28;20045;-67
2021/12/29 10:47:16;;;;;;;19.42;5.53;;;8.80;99.90;;;;;;5034789;28;20037;-67
2021/12/29 10:49:51;;;;;;;19.77;5.60;;;8.80;99.90;;;;;;5034662;28;20081;-67
2021/12/29 10:52:28;;;;;;;23.55;5.68;;;8.80;99.90;;;;;;5034142;28;20470;-68
2021/12/29 10:54:54;;;;;;;22.40;6.03;;;8.90;99.90;;;;;;5033998;28;20462;-66
2021/12/29 10:57:19;;;;;;;23.27;5.35;;;8.90;99.90;;;;;;5017271;28;20083;-67
2021/12/29 10:59:46;;;;;;;23.40;5.57;;;8.90;99.90;;;;;;5017046;28;20466;-67
2021/12/29 11:02:11;;;;;;;24.38;5.97;;;9.00;99.90;;;;;;5033194;28;20057;-67
2021/12/29 11:04:37;;;;;;;20.17;5.50;;;9.00;99.90;;;;;;5026034;28;20030;-68
2021/12/29 11:07:05;;;;;;;18.17;4.93;;;9.00;99.90;;;;;;5014395;28;20529;-68
2021/12/29 11:09:33;;;;;;;20.55;5.22;;;9.00;99.90;;;;;;5015676;28;20061;-68
2021/12/29 11:12:01;;;;;;;21.65;5.38;;;9.00;99.90;;;;;;4995424;28;20052;-68
2021/12/29 11:14:30;;;;;;;22.52;5.85;;;9.00;99.90;;;;;;5000375;28;20096;-66
2021/12/29 11:17:20;;;;;;;21.88;5.72;;;9.00;99.90;;;;;;5013301;28;20061;-67
2021/12/29 11:19:56;;;;;;;20.13;5.40;;;9.00;99.90;;;;;;5016713;28;20115;-67
2021/12/29 11:22:24;;;;;;;24.17;5.40;;;9.00;99.90;;;;;;5002016;28;20117;-67
2021/12/29 11:24:56;;;;;;;18.50;5.55;;;9.10;99.90;;;;;;4996920;28;20034;-67
2021/12/29 11:27:22;;;;;;;20.92;6.50;;;9.00;99.90;;;;;;4978818;28;20046;-68
2021/12/29 11:29:51;;;;;;;25.63;5.47;;;9.00;99.90;;;;;;4994981;28;20044;-68
2021/12/29 11:32:21;;;;;;;23.27;5.45;;;9.00;99.90;;;;;;5011988;28;20108;-67
2021/12/29 11:35:00;;;;;;;20.60;5.40;;;9.00;99.90;;;;;;5014178;28;20117;-67
2021/12/29 11:37:26;;;;;;;24.00;5.85;;;9.00;99.90;;;;;;5016169;28;20048;-67
2021/12/29 11:39:52;;;;;;;20.67;5.43;;;8.90;99.90;;;;;;5016187;28;20038;-66
2021/12/29 11:42:18;;;;;;;17.30;6.10;;;8.90;99.90;;;;;;5033401;28;20034;-67
2021/12/29 11:44:44;;;;;;;23.05;6.45;;;8.90;99.90;;;;;;5015138;28;20034;-67
2021/12/29 11:47:11;;;;;;;22.90;5.97;;;8.90;99.90;;;;;;5016028;28;20469;-67
2021/12/29 11:49:37;;;;;;;24.65;6.90;;;8.90;99.90;;;;;;5033512;28;20049;-67
2021/12/29 11:52:12;;;;;;;22.48;6.32;;;8.90;99.90;;;;;;5033230;28;20087;-67
2021/12/29 11:55:05;;;;;;;23.70;6.47;;;9.00;99.90;;;;;;4999543;28;20050;-67
2021/12/29 11:57:33;;;;;;;22.67;6.60;;;8.90;99.90;;;;;;5028371;28;20080;-68
2021/12/29 12:00:12;;;;;;;27.23;7.72;;;8.90;99.90;;;;;;5015109;28;20466;-67
2021/12/29 12:02:39;;;;;;;20.65;7.20;;;9.00;99.90;;;;;;5015272;28;20052;-67
2021/12/29 12:05:22;;;;;;;21.60;7.57;;;9.00;99.90;;;;;;5032959;28;20037;-67
2021/12/29 12:07:49;;;;;;;20.27;7.75;;;8.90;99.90;;;;;;5032950;28;20037;-67
2021/12/29 12:10:28;;;;;;;24.73;8.73;;;9.00;99.90;;;;;;4999462;28;20049;-67
2021/12/29 12:12:54;;;;;;;21.77;8.68;;;9.00;99.90;;;;;;5013960;28;20053;-67
2021/12/29 12:15:36;;;;;;;19.63;8.25;;;9.00;99.90;;;;;;5000136;28;20128;-67
2021/12/29 12:18:08;;;;;;;21.05;8.15;;;9.00;99.90;;;;;;5011860;28;20497;-67
2021/12/29 12:20:43;;;;;;;23.40;9.35;;;9.00;99.90;;;;;;5019559;28;20054;-67
2021/12/29 12:23:12;;;;;;;29.52;10.20;;;9.00;99.90;;;;;;5018380;28;20074;-68
2021/12/29 12:25:38;;;;;;;17.85;8.70;;;9.00;99.90;;;;;;5020113;28;20120;-67
2021/12/29 12:28:21;;;;;;;17.98;9.40;;;9.00;99.90;;;;;;5019777;28;20526;-67
2021/12/29 12:30:50;;;;;;;23.13;9.00;;;9.00;99.90;;;;;;5003392;28;20144;-67
2021/12/29 12:33:20;;;;;;;22.63;9.00;;;9.00;99.90;;;;;;5018699;28;20091;-67
2021/12/29 12:35:48;;;;;;;20.88;8.95;;;9.00;99.90;;;;;;5019816;28;20130;-67
2021/12/29 12:38:21;;;;;;;22.25;9.27;;;9.00;99.90;;;;;;5019933;28;20368;-67
2021/12/29 12:41:00;;;;;;;20.35;8.80;;;9.00;99.90;;;;;;5019683;28;20045;-67
2021/12/29 12:43:26;;;;;;;23.77;8.75;;;8.90;99.90;;;;;;5030588;28;20758;-67
2021/12/29 12:45:52;;;;;;;19.33;8.90;;;9.00;99.90;;;;;;5000135;28;20038;-68
2021/12/29 12:48:28;;;;;;;17.00;8.60;;;9.00;99.90;;;;;;4999829;28;20344;-67
2021/12/29 12:50:57;;;;;;;17.92;8.27;;;9.00;99.90;;;;;;5016938;28;20462;-66
2021/12/29 12:53:41;;;;;;;21.30;9.15;;;9.00;99.90;;;;;;5005104;28;20061;-67